sensor_id;sensor_type;location;lat;lon;timestamp;pressure;altitude;pressure_sealevel;temperature;humidity
74834;BME280;63361;52.384;20.930;2023-07-31T00:01:00;99910.94;;;15.77;100.00
74834;BME280;63361;52.384;20.930;2023-07-31T00:03:26;99931.88;;;15.86;100.00
74834;BME280;63361;52.384;20.930;2023-07-31T00:05:51;99931.41;;;15.83;100.00
74834;BME280;63361;52.384;20.930;2023-07-31T00:08:16;99936.22;;;15.78;100.00
74834;BME280;63361;52.384;20.930;2023-07-31T00:10:41;99929.06;;;15.73;100.00
74834;BME280;63361;52.384;20.930;2023-07-31T00:13:07;99936.47;;;15.56;100.00
74834;BME280;63361;52.384;20.930;2023-07-31T00:15:32;99923.34;;;15.40;100.00
74834;BME280;63361;52.384;20.930;2023-07-31T00:17:57;99924.16;;;15.32;100.00
74834;BME280;63361;52.384;20.930;2023-07-31T00:20:23;99937.75;;;15.32;100.00
74834;BME280;63361;52.384;20.930;2023-07-31T00:22:48;99935.84;;;15.33;100.00
74834;BME280;63361;52.384;20.930;2023-07-31T00:25:13;99941.28;;;15.24;100.00
74834;BME280;63361;52.384;20.930;2023-07-31T00:27:39;99932.34;;;15.15;100.00
74834;BME280;63361;52.384;20.930;2023-07-31T00:30:04;99932.66;;;15.13;100.00
74834;BME280;63361;52.384;20.930;2023-07-31T00:32:30;99938.88;;;15.14;100.00
74834;BME280;63361;52.384;20.930;2023-07-31T00:34:55;99939.22;;;15.21;100.00
74834;BME280;63361;52.384;20.930;2023-07-31T00:37:20;99924.66;;;15.26;100.00
74834;BME280;63361;52.384;20.930;2023-07-31T00:39:46;99934.56;;;15.39;100.00
74834;BME280;63361;52.384;20.930;2023-07-31T00:42:11;99931.34;;;15.37;100.00
74834;BME280;63361;52.384;20.930;2023-07-31T00:44:37;99947.03;;;15.57;100.00
74834;BME280;63361;52.384;20.930;2023-07-31T00:47:03;99946.22;;;15.57;100.00
74834;BME280;63361;52.384;20.930;2023-07-31T00:49:28;99947.78;;;15.66;100.00
74834;BME280;63361;52.384;20.930;2023-07-31T00:51:54;99944.28;;;15.66;100.00
74834;BME280;63361;52.384;20.930;2023-07-31T00:54:19;99940.00;;;15.56;100.00
74834;BME280;63361;52.384;20.930;2023-07-31T00:56:45;99945.91;;;15.58;100.00
74834;BME280;63361;52.384;20.930;2023-07-31T00:59:11;99931.16;;;15.51;100.00
74834;BME280;63361;52.384;20.930;2023-07-31T01:01:37;99933.44;;;15.57;100.00
74834;BME280;63361;52.384;20.930;2023-07-31T01:04:02;99913.25;;;15.58;100.00
74834;BME280;63361;52.384;20.930;2023-07-31T01:09:06;99921.22;;;15.55;100.00
74834;BME280;63361;52.384;20.930;2023-07-31T01:11:41;99927.09;;;15.74;100.00
74834;BME280;63361;52.384;20.930;2023-07-31T01:14:08;99930.03;;;15.60;100.00
74834;BME280;63361;52.384;20.930;2023-07-31T01:16:33;99919.84;;;15.40;100.00
74834;BME280;63361;52.384;20.930;2023-07-31T01:18:58;99931.53;;;15.23;100.00
74834;BME280;63361;52.384;20.930;2023-07-31T01:24:22;99931.22;;;15.25;100.00
74834;BME280;63361;52.384;20.930;2023-07-31T01:27:14;99933.16;;;15.07;100.00
74834;BME280;63361;52.384;20.930;2023-07-31T01:32:06;99925.81;;;14.82;100.00
74834;BME280;63361;52.384;20.930;2023-07-31T01:34:33;99924.69;;;14.74;100.00
74834;BME280;63361;52.384;20.930;2023-07-31T01:37:00;99944.81;;;14.73;100.00
74834;BME280;63361;52.384;20.930;2023-07-31T01:39:25;99947.69;;;14.76;100.00
74834;BME280;63361;52.384;20.930;2023-07-31T01:41:51;99948.19;;;14.78;100.00
74834;BME280;63361;52.384;20.930;2023-07-31T01:44:16;99948.81;;;14.75;100.00
74834;BME280;63361;52.384;20.930;2023-07-31T01:46:41;99945.31;;;14.75;100.00
74834;BME280;63361;52.384;20.930;2023-07-31T01:49:07;99934.91;;;14.60;100.00
74834;BME280;63361;52.384;20.930;2023-07-31T01:51:32;99935.66;;;14.52;100.00
74834;BME280;63361;52.384;20.930;2023-07-31T01:54:01;99940.66;;;14.50;100.00
74834;BME280;63361;52.384;20.930;2023-07-31T01:56:26;99933.38;;;14.36;100.00
74834;BME280;63361;52.384;20.930;2023-07-31T01:58:52;99935.84;;;14.47;100.00
74834;BME280;63361;52.384;20.930;2023-07-31T02:01:17;99959.19;;;14.65;100.00
74834;BME280;63361;52.384;20.930;2023-07-31T02:03:43;99953.91;;;14.60;100.00
74834;BME280;63361;52.384;20.930;2023-07-31T02:06:08;99963.34;;;14.71;100.00
74834;BME280;63361;52.384;20.930;2023-07-31T02:08:33;99964.31;;;14.75;100.00
74834;BME280;63361;52.384;20.930;2023-07-31T02:10:58;99957.44;;;14.69;100.00
74834;BME280;63361;52.384;20.930;2023-07-31T02:13:24;99956.66;;;14.77;100.00
74834;BME280;63361;52.384;20.930;2023-07-31T02:15:49;99946.25;;;14.70;100.00
74834;BME280;63361;52.384;20.930;2023-07-31T02:18:15;99959.84;;;14.62;100.00
74834;BME280;63361;52.384;20.930;2023-07-31T02:20:41;99954.38;;;14.53;100.00
74834;BME280;63361;52.384;20.930;2023-07-31T02:23:06;99961.88;;;14.48;100.00
74834;BME280;63361;52.384;20.930;2023-07-31T02:25:31;99955.59;;;14.38;100.00
74834;BME280;63361;52.384;20.930;2023-07-31T02:27:57;99957.81;;;14.28;100.00
74834;BME280;63361;52.384;20.930;2023-07-31T02:30:22;99971.19;;;14.24;100.00
74834;BME280;63361;52.384;20.930;2023-07-31T02:32:47;99971.50;;;14.23;100.00
74834;BME280;63361;52.384;20.930;2023-07-31T02:35:12;99955.53;;;14.13;100.00
74834;BME280;63361;52.384;20.930;2023-07-31T02:37:41;99972.19;;;14.28;100.00
74834;BME280;63361;52.384;20.930;2023-07-31T02:40:07;99959.66;;;14.10;100.00
74834;BME280;63361;52.384;20.930;2023-07-31T02:42:32;99967.50;;;14.12;100.00
74834;BME280;63361;52.384;20.930;2023-07-31T02:44:57;99975.22;;;14.27;100.00
74834;BME280;63361;52.384;20.930;2023-07-31T02:47:23;99977.38;;;14.47;100.00
74834;BME280;63361;52.384;20.930;2023-07-31T02:49:48;99980.13;;;14.64;100.00
74834;BME280;63361;52.384;20.930;2023-07-31T02:52:13;99977.91;;;14.75;100.00
74834;BME280;63361;52.384;20.930;2023-07-31T02:54:38;99972.63;;;14.78;100.00
74834;BME280;63361;52.384;20.930;2023-07-31T02:57:04;99980.97;;;14.91;100.00
74834;BME280;63361;52.384;20.930;2023-07-31T02:59:30;99960.81;;;14.92;100.00
74834;BME280;63361;52.384;20.930;2023-07-31T03:01:55;99976.50;;;15.12;100.00
74834;BME280;63361;52.384;20.930;2023-07-31T03:04:21;99963.38;;;15.05;100.00
74834;BME280;63361;52.384;20.930;2023-07-31T03:06:46;99975.38;;;15.22;100.00
74834;BME280;63361;52.384;20.930;2023-07-31T03:09:11;99981.25;;;15.32;100.00
74834;BME280;63361;52.384;20.930;2023-07-31T03:11:36;99964.34;;;15.27;100.00
74834;BME280;63361;52.384;20.930;2023-07-31T03:14:02;99968.16;;;15.34;100.00
74834;BME280;63361;52.384;20.930;2023-07-31T03:16:27;99960.00;;;15.34;100.00
74834;BME280;63361;52.384;20.930;2023-07-31T03:18:54;99966.38;;;15.47;100.00
74834;BME280;63361;52.384;20.930;2023-07-31T03:21:19;99987.31;;;15.72;100.00
74834;BME280;63361;52.384;20.930;2023-07-31T03:23:44;99969.56;;;15.66;100.00
74834;BME280;63361;52.384;20.930;2023-07-31T03:26:10;99973.53;;;15.77;100.00
74834;BME280;63361;52.384;20.930;2023-07-31T03:28:35;99977.19;;;15.81;100.00
74834;BME280;63361;52.384;20.930;2023-07-31T03:31:01;99984.34;;;15.95;100.00
74834;BME280;63361;52.384;20.930;2023-07-31T03:33:26;99990.59;;;16.04;100.00
74834;BME280;63361;52.384;20.930;2023-07-31T03:35:52;100001.81;;;16.02;100.00
74834;BME280;63361;52.384;20.930;2023-07-31T03:38:18;99997.00;;;15.99;100.00
74834;BME280;63361;52.384;20.930;2023-07-31T03:40:43;100003.41;;;16.03;100.00
74834;BME280;63361;52.384;20.930;2023-07-31T03:43:08;100004.78;;;16.18;100.00
74834;BME280;63361;52.384;20.930;2023-07-31T03:45:34;100004.09;;;16.21;100.00
74834;BME280;63361;52.384;20.930;2023-07-31T03:48:00;99991.50;;;16.16;100.00
74834;BME280;63361;52.384;20.930;2023-07-31T03:50:25;100011.41;;;16.38;100.00
74834;BME280;63361;52.384;20.930;2023-07-31T03:52:50;100008.84;;;16.41;100.00
74834;BME280;63361;52.384;20.930;2023-07-31T03:55:16;100017.63;;;16.47;100.00
74834;BME280;63361;52.384;20.930;2023-07-31T03:57:41;100010.38;;;16.51;100.00
74834;BME280;63361;52.384;20.930;2023-07-31T04:00:07;100017.41;;;16.61;100.00
74834;BME280;63361;52.384;20.930;2023-07-31T04:02:32;100015.09;;;16.71;100.00
74834;BME280;63361;52.384;20.930;2023-07-31T04:04:58;100017.84;;;16.71;100.00
74834;BME280;63361;52.384;20.930;2023-07-31T04:07:23;100030.75;;;16.83;100.00
74834;BME280;63361;52.384;20.930;2023-07-31T04:09:48;100022.84;;;16.90;100.00
74834;BME280;63361;52.384;20.930;2023-07-31T04:12:14;100016.41;;;16.95;100.00
74834;BME280;63361;52.384;20.930;2023-07-31T04:14:39;100027.25;;;17.03;100.00
74834;BME280;63361;52.384;20.930;2023-07-31T04:17:05;100015.53;;;17.03;100.00
74834;BME280;63361;52.384;20.930;2023-07-31T04:19:30;100029.31;;;17.06;100.00
74834;BME280;63361;52.384;20.930;2023-07-31T04:21:55;100035.97;;;17.17;100.00
74834;BME280;63361;52.384;20.930;2023-07-31T04:24:21;100041.22;;;17.22;100.00
74834;BME280;63361;52.384;20.930;2023-07-31T04:26:53;100041.28;;;17.35;100.00
74834;BME280;63361;52.384;20.930;2023-07-31T04:29:18;100043.50;;;17.41;100.00
74834;BME280;63361;52.384;20.930;2023-07-31T04:31:44;100042.78;;;17.44;100.00
74834;BME280;63361;52.384;20.930;2023-07-31T04:34:09;100038.75;;;17.50;100.00
74834;BME280;63361;52.384;20.930;2023-07-31T04:36:35;100031.34;;;17.51;100.00
74834;BME280;63361;52.384;20.930;2023-07-31T04:39:01;100041.47;;;17.50;100.00
74834;BME280;63361;52.384;20.930;2023-07-31T04:41:26;100046.97;;;17.63;100.00
74834;BME280;63361;52.384;20.930;2023-07-31T04:43:51;100049.69;;;17.83;100.00
74834;BME280;63361;52.384;20.930;2023-07-31T04:46:17;100043.44;;;17.83;100.00
74834;BME280;63361;52.384;20.930;2023-07-31T04:48:42;100052.94;;;18.10;100.00
74834;BME280;63361;52.384;20.930;2023-07-31T04:51:08;100055.94;;;18.17;100.00
74834;BME280;63361;52.384;20.930;2023-07-31T04:53:34;100053.69;;;18.31;100.00
74834;BME280;63361;52.384;20.930;2023-07-31T04:56:00;100044.44;;;18.36;100.00
74834;BME280;63361;52.384;20.930;2023-07-31T04:58:25;100041.69;;;18.36;100.00
74834;BME280;63361;52.384;20.930;2023-07-31T05:00:51;100053.69;;;18.55;100.00
74834;BME280;63361;52.384;20.930;2023-07-31T05:03:16;100045.94;;;18.45;100.00
74834;BME280;63361;52.384;20.930;2023-07-31T05:05:41;100051.41;;;18.45;100.00
74834;BME280;63361;52.384;20.930;2023-07-31T05:08:06;100045.81;;;18.42;100.00
74834;BME280;63361;52.384;20.930;2023-07-31T05:10:32;100051.22;;;18.63;100.00
74834;BME280;63361;52.384;20.930;2023-07-31T05:12:57;100056.97;;;18.97;100.00
74834;BME280;63361;52.384;20.930;2023-07-31T05:15:22;100065.31;;;19.41;100.00
74834;BME280;63361;52.384;20.930;2023-07-31T05:17:48;100065.97;;;19.62;100.00
74834;BME280;63361;52.384;20.930;2023-07-31T05:20:13;100069.03;;;19.61;100.00
74834;BME280;63361;52.384;20.930;2023-07-31T05:22:40;100067.50;;;19.36;100.00
74834;BME280;63361;52.384;20.930;2023-07-31T05:25:05;100058.31;;;19.16;100.00
74834;BME280;63361;52.384;20.930;2023-07-31T05:27:31;100041.41;;;18.61;100.00
74834;BME280;63361;52.384;20.930;2023-07-31T05:29:56;100058.28;;;18.76;100.00
74834;BME280;63361;52.384;20.930;2023-07-31T05:32:21;100072.50;;;18.81;100.00
74834;BME280;63361;52.384;20.930;2023-07-31T05:34:47;100069.88;;;19.09;100.00
74834;BME280;63361;52.384;20.930;2023-07-31T05:37:13;100076.34;;;19.57;100.00
74834;BME280;63361;52.384;20.930;2023-07-31T05:39:39;100073.28;;;19.46;100.00
74834;BME280;63361;52.384;20.930;2023-07-31T05:42:04;100075.94;;;19.55;100.00
74834;BME280;63361;52.384;20.930;2023-07-31T05:44:30;100086.06;;;19.42;100.00
74834;BME280;63361;52.384;20.930;2023-07-31T05:46:55;100079.75;;;19.14;100.00
74834;BME280;63361;52.384;20.930;2023-07-31T05:49:20;100080.00;;;19.09;100.00
74834;BME280;63361;52.384;20.930;2023-07-31T05:51:46;100084.25;;;18.94;100.00
74834;BME280;63361;52.384;20.930;2023-07-31T05:54:11;100080.81;;;19.09;100.00
74834;BME280;63361;52.384;20.930;2023-07-31T05:56:36;100098.63;;;19.43;100.00
74834;BME280;63361;52.384;20.930;2023-07-31T05:59:01;100076.69;;;19.15;100.00
74834;BME280;63361;52.384;20.930;2023-07-31T06:01:28;100093.78;;;19.24;100.00
74834;BME280;63361;52.384;20.930;2023-07-31T06:03:53;100094.19;;;19.26;100.00
74834;BME280;63361;52.384;20.930;2023-07-31T06:06:18;100100.31;;;19.48;100.00
74834;BME280;63361;52.384;20.930;2023-07-31T06:08:44;100098.53;;;19.27;100.00
74834;BME280;63361;52.384;20.930;2023-07-31T06:11:09;100109.28;;;18.96;100.00
74834;BME280;63361;52.384;20.930;2023-07-31T06:13:35;100107.50;;;18.88;100.00
74834;BME280;63361;52.384;20.930;2023-07-31T06:16:00;100105.56;;;18.88;100.00
74834;BME280;63361;52.384;20.930;2023-07-31T06:18:27;100114.09;;;18.87;100.00
74834;BME280;63361;52.384;20.930;2023-07-31T06:20:53;100114.09;;;18.99;100.00
74834;BME280;63361;52.384;20.930;2023-07-31T06:23:19;100109.16;;;19.29;100.00
74834;BME280;63361;52.384;20.930;2023-07-31T06:25:45;100106.28;;;19.50;100.00
74834;BME280;63361;52.384;20.930;2023-07-31T06:28:10;100097.97;;;19.74;100.00
74834;BME280;63361;52.384;20.930;2023-07-31T06:30:36;100106.47;;;19.57;100.00
74834;BME280;63361;52.384;20.930;2023-07-31T06:33:02;100123.91;;;19.64;100.00
74834;BME280;63361;52.384;20.930;2023-07-31T06:35:28;100115.09;;;19.71;100.00
74834;BME280;63361;52.384;20.930;2023-07-31T06:37:54;100115.75;;;19.52;100.00
74834;BME280;63361;52.384;20.930;2023-07-31T06:40:21;100092.09;;;19.48;100.00
74834;BME280;63361;52.384;20.930;2023-07-31T06:42:47;100117.09;;;19.86;100.00
74834;BME280;63361;52.384;20.930;2023-07-31T06:45:14;100125.53;;;19.93;100.00
74834;BME280;63361;52.384;20.930;2023-07-31T06:47:41;100127.94;;;20.54;100.00
74834;BME280;63361;52.384;20.930;2023-07-31T06:50:09;100127.47;;;21.15;100.00
74834;BME280;63361;52.384;20.930;2023-07-31T06:52:35;100114.63;;;21.93;100.00
74834;BME280;63361;52.384;20.930;2023-07-31T06:55:16;100114.28;;;23.61;100.00
74834;BME280;63361;52.384;20.930;2023-07-31T06:57:43;100121.41;;;26.29;100.00
74834;BME280;63361;52.384;20.930;2023-07-31T07:00:09;100129.75;;;26.61;74.62
74834;BME280;63361;52.384;20.930;2023-07-31T07:02:35;100132.22;;;25.58;76.86
74834;BME280;63361;52.384;20.930;2023-07-31T07:05:00;100121.41;;;25.32;78.04
74834;BME280;63361;52.384;20.930;2023-07-31T07:07:26;100117.25;;;25.63;76.88
74834;BME280;63361;52.384;20.930;2023-07-31T07:09:51;100140.78;;;27.60;71.31
74834;BME280;63361;52.384;20.930;2023-07-31T07:12:17;100130.38;;;29.45;61.81
74834;BME280;63361;52.384;20.930;2023-07-31T07:14:42;100129.09;;;29.83;55.23
74834;BME280;63361;52.384;20.930;2023-07-31T07:17:07;100133.22;;;29.71;54.75
74834;BME280;63361;52.384;20.930;2023-07-31T07:19:32;100135.75;;;29.62;51.90
74834;BME280;63361;52.384;20.930;2023-07-31T07:21:58;100137.31;;;29.63;51.20
74834;BME280;63361;52.384;20.930;2023-07-31T07:24:26;100130.97;;;29.22;51.81
74834;BME280;63361;52.384;20.930;2023-07-31T07:26:51;100134.44;;;31.05;47.38
74834;BME280;63361;52.384;20.930;2023-07-31T07:29:16;100138.31;;;31.94;42.78
74834;BME280;63361;52.384;20.930;2023-07-31T07:31:42;100123.97;;;31.75;42.21
74834;BME280;63361;52.384;20.930;2023-07-31T07:34:07;100132.63;;;31.18;42.90
74834;BME280;63361;52.384;20.930;2023-07-31T07:36:32;100137.13;;;32.31;41.45
74834;BME280;63361;52.384;20.930;2023-07-31T07:38:58;100115.28;;;31.30;42.36
74834;BME280;63361;52.384;20.930;2023-07-31T07:41:23;100120.75;;;30.40;44.25
74834;BME280;63361;52.384;20.930;2023-07-31T07:43:49;100124.41;;;30.37;44.66
74834;BME280;63361;52.384;20.930;2023-07-31T07:46:14;100125.28;;;30.04;45.53
74834;BME280;63361;52.384;20.930;2023-07-31T07:48:39;100120.38;;;28.65;48.07
74834;BME280;63361;52.384;20.930;2023-07-31T07:51:04;100121.41;;;28.33;49.79
74834;BME280;63361;52.384;20.930;2023-07-31T07:53:30;100125.38;;;29.25;48.24
74834;BME280;63361;52.384;20.930;2023-07-31T07:55:55;100127.06;;;30.44;45.22
74834;BME280;63361;52.384;20.930;2023-07-31T07:58:20;100129.66;;;31.29;42.70
74834;BME280;63361;52.384;20.930;2023-07-31T08:00:50;100126.06;;;30.31;44.93
74834;BME280;63361;52.384;20.930;2023-07-31T08:03:16;100120.31;;;30.19;44.09
74834;BME280;63361;52.384;20.930;2023-07-31T08:05:42;100122.66;;;30.20;44.08
74834;BME280;63361;52.384;20.930;2023-07-31T08:08:07;100130.59;;;30.49;44.30
74834;BME280;63361;52.384;20.930;2023-07-31T08:10:33;100118.16;;;30.80;42.63
74834;BME280;63361;52.384;20.930;2023-07-31T08:12:58;100124.22;;;30.98;42.42
74834;BME280;63361;52.384;20.930;2023-07-31T08:15:23;100118.16;;;31.86;41.13
74834;BME280;63361;52.384;20.930;2023-07-31T08:17:49;100116.66;;;32.17;39.60
74834;BME280;63361;52.384;20.930;2023-07-31T08:20:14;100128.59;;;32.38;37.77
74834;BME280;63361;52.384;20.930;2023-07-31T08:22:39;100114.28;;;32.68;37.07
74834;BME280;63361;52.384;20.930;2023-07-31T08:25:05;100119.94;;;32.12;38.13
74834;BME280;63361;52.384;20.930;2023-07-31T08:27:32;100120.16;;;31.86;37.15
74834;BME280;63361;52.384;20.930;2023-07-31T08:29:57;100114.63;;;33.32;36.18
74834;BME280;63361;52.384;20.930;2023-07-31T08:32:22;100131.25;;;33.23;34.48
74834;BME280;63361;52.384;20.930;2023-07-31T08:34:48;100128.19;;;33.17;35.46
74834;BME280;63361;52.384;20.930;2023-07-31T08:37:14;100125.31;;;31.67;37.40
74834;BME280;63361;52.384;20.930;2023-07-31T08:39:39;100124.34;;;31.15;37.60
74834;BME280;63361;52.384;20.930;2023-07-31T08:42:07;100128.97;;;30.24;40.02
74834;BME280;63361;52.384;20.930;2023-07-31T08:44:33;100124.16;;;30.55;39.37
74834;BME280;63361;52.384;20.930;2023-07-31T08:47:00;100130.81;;;31.08;38.25
74834;BME280;63361;52.384;20.930;2023-07-31T08:49:26;100123.78;;;31.23;37.64
74834;BME280;63361;52.384;20.930;2023-07-31T08:51:52;100123.81;;;31.83;36.82
74834;BME280;63361;52.384;20.930;2023-07-31T08:54:19;100121.16;;;32.11;35.75
74834;BME280;63361;52.384;20.930;2023-07-31T08:56:46;100126.22;;;33.01;35.60
74834;BME280;63361;52.384;20.930;2023-07-31T08:59:13;100142.72;;;33.99;33.17
74834;BME280;63361;52.384;20.930;2023-07-31T09:01:43;100121.97;;;32.80;35.07
74834;BME280;63361;52.384;20.930;2023-07-31T09:04:11;100119.75;;;34.80;32.21
74834;BME280;63361;52.384;20.930;2023-07-31T09:06:38;100117.03;;;33.87;33.28
74834;BME280;63361;52.384;20.930;2023-07-31T09:09:03;100122.34;;;33.69;34.12
74834;BME280;63361;52.384;20.930;2023-07-31T09:11:29;100127.06;;;33.60;33.30
74834;BME280;63361;52.384;20.930;2023-07-31T09:13:57;100123.59;;;33.10;34.55
74834;BME280;63361;52.384;20.930;2023-07-31T09:16:29;100123.88;;;33.99;32.50
74834;BME280;63361;52.384;20.930;2023-07-31T09:18:57;100116.50;;;33.06;33.78
74834;BME280;63361;52.384;20.930;2023-07-31T09:21:24;100110.34;;;33.56;34.18
74834;BME280;63361;52.384;20.930;2023-07-31T09:23:50;100110.34;;;32.82;33.76
74834;BME280;63361;52.384;20.930;2023-07-31T09:26:36;100117.38;;;31.46;36.90
74834;BME280;63361;52.384;20.930;2023-07-31T09:29:05;100115.63;;;32.28;35.81
74834;BME280;63361;52.384;20.930;2023-07-31T09:34:03;100110.19;;;31.02;35.89
74834;BME280;63361;52.384;20.930;2023-07-31T09:36:29;100113.69;;;30.09;38.15
74834;BME280;63361;52.384;20.930;2023-07-31T09:38:56;100115.81;;;29.64;38.18
74834;BME280;63361;52.384;20.930;2023-07-31T09:41:23;100107.91;;;30.23;37.50
74834;BME280;63361;52.384;20.930;2023-07-31T09:43:54;100105.22;;;30.16;38.16
74834;BME280;63361;52.384;20.930;2023-07-31T09:46:20;100105.50;;;31.62;36.79
74834;BME280;63361;52.384;20.930;2023-07-31T09:48:45;100106.63;;;31.84;34.99
74834;BME280;63361;52.384;20.930;2023-07-31T09:51:11;100104.75;;;32.49;33.02
74834;BME280;63361;52.384;20.930;2023-07-31T09:53:36;100125.53;;;33.42;31.71
74834;BME280;63361;52.384;20.930;2023-07-31T09:56:02;100110.16;;;32.89;31.45
74834;BME280;63361;52.384;20.930;2023-07-31T09:58:28;100117.31;;;32.90;31.34
74834;BME280;63361;52.384;20.930;2023-07-31T10:00:55;100110.28;;;31.81;32.58
74834;BME280;63361;52.384;20.930;2023-07-31T10:03:22;100105.72;;;32.07;33.11
74834;BME280;63361;52.384;20.930;2023-07-31T10:05:50;100120.47;;;32.92;31.75
74834;BME280;63361;52.384;20.930;2023-07-31T10:08:18;100105.88;;;33.59;30.68
74834;BME280;63361;52.384;20.930;2023-07-31T10:10:45;100100.19;;;32.39;29.33
74834;BME280;63361;52.384;20.930;2023-07-31T10:13:12;100117.75;;;31.68;30.48
74834;BME280;63361;52.384;20.930;2023-07-31T10:15:38;100107.28;;;31.09;32.00
74834;BME280;63361;52.384;20.930;2023-07-31T10:18:05;100110.16;;;30.82;32.49
74834;BME280;63361;52.384;20.930;2023-07-31T10:20:31;100108.66;;;29.97;32.98
74834;BME280;63361;52.384;20.930;2023-07-31T10:22:56;100115.41;;;29.31;34.18
74834;BME280;63361;52.384;20.930;2023-07-31T10:25:23;100113.63;;;30.13;32.52
74834;BME280;63361;52.384;20.930;2023-07-31T10:27:50;100101.53;;;30.73;31.94
74834;BME280;63361;52.384;20.930;2023-07-31T10:30:19;100115.31;;;31.70;29.75
74834;BME280;63361;52.384;20.930;2023-07-31T10:32:46;100103.28;;;32.77;28.21
74834;BME280;63361;52.384;20.930;2023-07-31T10:35:14;100091.44;;;33.31;27.49
74834;BME280;63361;52.384;20.930;2023-07-31T10:37:42;100114.88;;;33.79;27.39
74834;BME280;63361;52.384;20.930;2023-07-31T10:42:49;100110.84;;;30.66;31.26
74834;BME280;63361;52.384;20.930;2023-07-31T10:47:58;100098.53;;;32.42;28.57
74834;BME280;63361;52.384;20.930;2023-07-31T10:50:24;100105.97;;;33.55;28.57
74834;BME280;63361;52.384;20.930;2023-07-31T10:52:52;100099.72;;;33.06;28.03
74834;BME280;63361;52.384;20.930;2023-07-31T10:57:49;100098.09;;;33.21;28.45
74834;BME280;63361;52.384;20.930;2023-07-31T11:00:19;100105.94;;;33.42;27.86
74834;BME280;63361;52.384;20.930;2023-07-31T11:03:03;100096.88;;;32.44;27.09
74834;BME280;63361;52.384;20.930;2023-07-31T11:08:35;100098.25;;;31.25;29.43
74834;BME280;63361;52.384;20.930;2023-07-31T11:13:49;100097.84;;;30.02;31.15
74834;BME280;63361;52.384;20.930;2023-07-31T11:16:17;100106.75;;;30.21;31.23
74834;BME280;63361;52.384;20.930;2023-07-31T11:18:43;100095.50;;;30.01;30.84
74834;BME280;63361;52.384;20.930;2023-07-31T11:21:16;100089.22;;;29.93;31.43
74834;BME280;63361;52.384;20.930;2023-07-31T11:23:46;100095.59;;;29.26;32.98
74834;BME280;63361;52.384;20.930;2023-07-31T11:26:12;100082.78;;;29.69;32.93
74834;BME280;63361;52.384;20.930;2023-07-31T11:28:37;100091.97;;;29.97;33.01
74834;BME280;63361;52.384;20.930;2023-07-31T11:31:03;100100.47;;;29.83;32.63
74834;BME280;63361;52.384;20.930;2023-07-31T11:33:29;100091.50;;;29.34;34.65
74834;BME280;63361;52.384;20.930;2023-07-31T11:35:54;100088.34;;;29.69;33.67
74834;BME280;63361;52.384;20.930;2023-07-31T11:38:30;100095.59;;;30.71;32.93
74834;BME280;63361;52.384;20.930;2023-07-31T11:41:03;100098.19;;;31.05;31.35
74834;BME280;63361;52.384;20.930;2023-07-31T11:43:30;100091.94;;;30.51;32.64
74834;BME280;63361;52.384;20.930;2023-07-31T11:45:57;100084.19;;;30.38;32.16
74834;BME280;63361;52.384;20.930;2023-07-31T11:48:30;100075.72;;;30.46;31.38
74834;BME280;63361;52.384;20.930;2023-07-31T11:51:01;100077.91;;;30.07;32.29
74834;BME280;63361;52.384;20.930;2023-07-31T11:53:36;100072.47;;;29.97;32.47
74834;BME280;63361;52.384;20.930;2023-07-31T11:56:03;100078.41;;;29.99;33.73
74834;BME280;63361;52.384;20.930;2023-07-31T11:58:33;100064.56;;;29.31;33.32
74834;BME280;63361;52.384;20.930;2023-07-31T12:00:59;100077.34;;;29.21;34.71
74834;BME280;63361;52.384;20.930;2023-07-31T12:03:25;100072.56;;;29.90;33.71
74834;BME280;63361;52.384;20.930;2023-07-31T12:05:53;100078.31;;;29.76;32.57
74834;BME280;63361;52.384;20.930;2023-07-31T12:08:20;100076.56;;;29.89;33.09
74834;BME280;63361;52.384;20.930;2023-07-31T12:10:46;100067.97;;;29.46;33.09
74834;BME280;63361;52.384;20.930;2023-07-31T12:13:23;100071.94;;;29.79;33.69
74834;BME280;63361;52.384;20.930;2023-07-31T12:15:48;100042.09;;;28.74;34.38
74834;BME280;63361;52.384;20.930;2023-07-31T12:18:16;100056.31;;;28.38;36.54
74834;BME280;63361;52.384;20.930;2023-07-31T12:20:48;100052.41;;;27.55;37.07
74834;BME280;63361;52.384;20.930;2023-07-31T12:25:44;100054.84;;;27.46;37.31
74834;BME280;63361;52.384;20.930;2023-07-31T12:28:10;100036.69;;;27.20;37.58
74834;BME280;63361;52.384;20.930;2023-07-31T12:30:39;100043.03;;;27.24;38.20
74834;BME280;63361;52.384;20.930;2023-07-31T12:33:15;100039.50;;;27.13;37.95
74834;BME280;63361;52.384;20.930;2023-07-31T12:35:45;100037.06;;;27.29;37.65
74834;BME280;63361;52.384;20.930;2023-07-31T12:38:12;100025.31;;;26.97;38.43
74834;BME280;63361;52.384;20.930;2023-07-31T12:40:38;100022.03;;;27.34;38.81
74834;BME280;63361;52.384;20.930;2023-07-31T12:43:04;100027.91;;;28.13;36.79
74834;BME280;63361;52.384;20.930;2023-07-31T12:45:31;100027.50;;;29.03;35.51
74834;BME280;63361;52.384;20.930;2023-07-31T12:47:57;100015.56;;;29.44;34.25
74834;BME280;63361;52.384;20.930;2023-07-31T12:50:23;100019.94;;;29.08;33.83
74834;BME280;63361;52.384;20.930;2023-07-31T12:52:49;100022.75;;;29.95;32.79
74834;BME280;63361;52.384;20.930;2023-07-31T12:55:14;100006.19;;;30.62;32.58
74834;BME280;63361;52.384;20.930;2023-07-31T12:57:40;100004.78;;;30.50;31.52
74834;BME280;63361;52.384;20.930;2023-07-31T13:00:06;100010.00;;;31.15;31.78